Time;durP1;ratioP1;P1;durP2;ratioP2;P2;SDS_P1;SDS_P2;PMS_P1;PMS_P2;Temp;Humidity;BMP_temperature;BMP_pressure;BME280_temperature;BME280_humidity;BME280_pressure;Samples;Min_cycle;Max_cycle;Signal;HPM_P1;HPM_P2
2022/12/01 00:00:36;;;;;;;12.80;10.43;;;6.80;99.90;;;;;;5013209;28;20180;-65
2022/12/01 00:03:01;;;;;;;16.40;10.87;;;6.70;99.90;;;;;;5013267;28;20669;-65
2022/12/01 00:05:27;;;;;;;15.30;10.70;;;6.80;99.90;;;;;;5013528;28;20208;-66
2022/12/01 00:07:53;;;;;;;15.13;10.93;;;6.80;99.90;;;;;;5013000;28;20168;-66
2022/12/01 00:10:25;;;;;;;13.33;10.73;;;6.80;99.90;;;;;;4995050;28;20220;-65
2022/12/01 00:12:57;;;;;;;12.83;10.90;;;6.80;99.90;;;;;;4995406;28;20172;-66
2022/12/01 00:15:26;;;;;;;22.77;13.90;;;6.80;99.90;;;;;;5013035;28;20176;-65
2022/12/01 00:17:52;;;;;;;15.10;11.67;;;6.80;99.90;;;;;;5012722;28;20275;-66
2022/12/01 00:20:17;;;;;;;25.67;16.80;;;6.90;99.90;;;;;;5012614;28;20203;-66
2022/12/01 00:22:44;;;;;;;17.90;13.43;;;6.80;99.90;;;;;;5012697;28;20168;-66
2022/12/01 00:25:10;;;;;;;14.60;11.37;;;6.80;99.90;;;;;;5012918;28;20542;-66
2022/12/01 00:27:36;;;;;;;17.93;12.80;;;6.80;99.90;;;;;;5012743;28;20175;-65
2022/12/01 00:30:02;;;;;;;14.40;11.70;;;6.90;99.90;;;;;;5012540;28;20203;-65
2022/12/01 00:32:29;;;;;;;15.67;11.20;;;6.80;99.90;;;;;;5012959;28;20519;-66
2022/12/01 00:34:55;;;;;;;16.27;10.63;;;6.80;99.90;;;;;;5012481;28;20180;-65
2022/12/01 00:37:20;;;;;;;20.37;12.17;;;6.80;99.90;;;;;;5011871;28;20203;-65
2022/12/01 00:39:46;;;;;;;14.10;11.43;;;6.80;99.90;;;;;;5011956;28;20254;-65
2022/12/01 00:42:12;;;;;;;18.90;12.87;;;6.80;99.90;;;;;;5012727;28;20207;-66
2022/12/01 00:44:37;;;;;;;18.20;12.00;;;6.90;99.90;;;;;;5012433;28;20190;-66
2022/12/01 00:47:03;;;;;;;15.43;11.27;;;6.90;99.90;;;;;;5012500;28;20180;-65
2022/12/01 00:49:29;;;;;;;23.67;12.73;;;6.80;99.90;;;;;;5011954;28;20231;-65
2022/12/01 00:51:54;;;;;;;18.93;13.67;;;6.90;99.90;;;;;;5012472;28;20176;-66
2022/12/01 00:54:20;;;;;;;13.90;11.83;;;6.90;99.90;;;;;;5012402;28;20184;-66
2022/12/01 00:56:45;;;;;;;25.30;12.47;;;6.80;99.90;;;;;;5012313;28;20684;-66
2022/12/01 00:59:11;;;;;;;23.27;12.77;;;6.80;99.90;;;;;;5011781;28;20196;-65
2022/12/01 01:01:36;;;;;;;18.03;12.73;;;6.80;99.90;;;;;;5012261;28;20173;-65
2022/12/01 01:04:02;;;;;;;21.77;13.67;;;6.80;99.90;;;;;;5012106;28;20581;-65
2022/12/01 01:06:28;;;;;;;19.50;11.57;;;6.80;99.90;;;;;;5012315;28;20181;-66
2022/12/01 01:08:54;;;;;;;27.07;14.07;;;6.70;99.90;;;;;;5011740;28;20285;-65
2022/12/01 01:11:19;;;;;;;21.07;13.50;;;6.80;99.90;;;;;;5011804;28;20228;-65
2022/12/01 01:13:45;;;;;;;26.83;14.67;;;6.70;99.90;;;;;;5011808;28;20184;-65
2022/12/01 01:16:18;;;;;;;22.23;14.97;;;6.70;99.90;;;;;;5012047;28;20199;-65
2022/12/01 01:18:44;;;;;;;24.80;14.53;;;6.70;99.90;;;;;;5011754;28;20191;-66
2022/12/01 01:21:13;;;;;;;25.13;13.73;;;6.70;99.90;;;;;;5012010;28;20172;-65
2022/12/01 01:23:39;;;;;;;24.00;13.50;;;6.80;99.90;;;;;;5011864;28;20168;-65
2022/12/01 01:26:16;;;;;;;19.47;13.47;;;6.80;99.90;;;;;;5012002;28;20187;-65
2022/12/01 01:28:42;;;;;;;28.77;14.83;;;6.80;99.90;;;;;;5011922;28;20555;-65
2022/12/01 01:31:12;;;;;;;22.53;13.17;;;6.90;99.90;;;;;;5011979;28;20255;-66
2022/12/01 01:33:37;;;;;;;18.90;12.80;;;6.90;99.90;;;;;;5011671;28;20168;-65
2022/12/01 01:36:04;;;;;;;26.03;12.53;;;6.80;99.90;;;;;;5012178;28;20182;-65
2022/12/01 01:38:30;;;;;;;29.27;14.03;;;6.90;99.90;;;;;;4994446;28;20176;-65
2022/12/01 01:40:55;;;;;;;26.00;14.27;;;6.90;99.90;;;;;;5011416;28;20188;-65
2022/12/01 01:43:51;;;;;;;28.27;14.57;;;6.90;99.90;;;;;;5011981;28;20175;-65
2022/12/01 01:46:21;;;;;;;27.77;14.57;;;6.90;99.90;;;;;;4992488;28;20268;-65
2022/12/01 01:48:54;;;;;;;25.53;13.20;;;6.90;99.90;;;;;;4992295;28;20189;-66
2022/12/01 01:51:38;;;;;;;22.33;13.27;;;6.90;99.90;;;;;;4991996;28;20165;-65
2022/12/01 01:54:14;;;;;;;24.57;13.87;;;6.90;99.90;;;;;;4994017;28;20177;-65
2022/12/01 01:56:42;;;;;;;22.13;14.00;;;6.90;99.90;;;;;;5011786;28;20557;-65
2022/12/01 01:59:09;;;;;;;20.10;12.87;;;6.80;99.90;;;;;;5011405;28;20192;-66
2022/12/01 02:01:34;;;;;;;20.40;14.17;;;6.90;99.90;;;;;;5011679;28;20169;-65
2022/12/01 02:04:01;;;;;;;19.60;13.27;;;6.90;99.90;;;;;;5011608;28;20195;-66
2022/12/01 02:06:27;;;;;;;20.60;13.70;;;6.90;99.90;;;;;;5011615;28;20200;-65
2022/12/01 02:08:52;;;;;;;19.90;14.13;;;6.80;99.90;;;;;;5011388;28;20228;-65
2022/12/01 02:11:47;;;;;;;24.53;13.37;;;6.80;99.90;;;;;;5001466;23;20285;-65
2022/12/01 02:14:37;;;;;;;23.13;13.87;;;6.80;99.90;;;;;;4992374;28;20311;-65
2022/12/01 02:17:05;;;;;;;30.67;16.23;;;6.80;99.90;;;;;;4992668;28;20287;-65
2022/12/01 02:20:09;;;;;;;23.40;15.50;;;6.80;99.90;;;;;;4991769;28;20192;-65
2022/12/01 02:22:49;;;;;;;19.30;13.20;;;6.70;99.90;;;;;;4992113;28;20173;-65
2022/12/01 02:25:38;;;;;;;23.77;13.00;;;6.70;99.90;;;;;;4991646;28;20223;-65
2022/12/01 02:28:24;;;;;;;23.27;12.97;;;6.70;99.90;;;;;;4992059;28;20188;-65
2022/12/01 02:31:02;;;;;;;20.27;13.10;;;6.70;99.90;;;;;;4991641;28;20200;-65
2022/12/01 02:33:33;;;;;;;30.53;14.20;;;6.70;99.90;;;;;;4991929;28;20177;-65
2022/12/01 02:36:20;;;;;;;26.27;14.23;;;6.70;99.90;;;;;;4991689;28;20173;-65
2022/12/01 02:39:03;;;;;;;30.03;15.43;;;6.70;99.90;;;;;;4991884;28;20161;-65
2022/12/01 02:42:00;;;;;;;29.83;14.30;;;6.70;99.90;;;;;;4991553;28;20287;-65
2022/12/01 02:44:34;;;;;;;27.60;15.20;;;6.70;99.90;;;;;;4991111;28;20185;-65
2022/12/01 02:47:13;;;;;;;25.93;13.27;;;6.70;99.90;;;;;;4991829;28;20168;-65
2022/12/01 02:49:49;;;;;;;23.43;13.83;;;6.70;99.90;;;;;;4991403;28;20200;-65
2022/12/01 02:52:15;;;;;;;23.03;13.03;;;6.70;99.90;;;;;;4991744;28;20179;-65
2022/12/01 02:54:43;;;;;;;26.03;14.43;;;6.60;99.90;;;;;;4991587;28;20710;-65
2022/12/01 02:57:14;;;;;;;27.87;14.13;;;6.70;99.90;;;;;;4991849;28;20670;-65
2022/12/01 02:59:42;;;;;;;29.57;14.87;;;6.60;99.90;;;;;;4992842;28;20662;-65
2022/12/01 03:02:23;;;;;;;18.83;12.27;;;6.60;99.90;;;;;;4995229;28;20177;-65
2022/12/01 03:05:04;;;;;;;22.27;12.83;;;6.60;99.90;;;;;;4995016;28;20181;-65
2022/12/01 03:07:43;;;;;;;25.67;13.20;;;6.60;99.90;;;;;;4994902;28;20179;-65
2022/12/01 03:10:36;;;;;;;24.30;14.17;;;6.60;99.90;;;;;;4994613;28;20219;-65
2022/12/01 03:13:32;;;;;;;24.20;14.53;;;6.60;99.90;;;;;;4994976;28;20173;-65
2022/12/01 03:16:15;;;;;;;22.50;13.10;;;6.60;99.90;;;;;;4994760;28;20199;-65
2022/12/01 03:18:55;;;;;;;34.07;14.37;;;6.60;99.90;;;;;;4994568;28;20204;-65
2022/12/01 03:21:20;;;;;;;25.23;14.47;;;6.70;99.90;;;;;;4994997;28;20204;-70
2022/12/01 03:23:51;;;;;;;23.00;13.03;;;6.70;99.90;;;;;;4996074;28;20698;-67
2022/12/01 03:26:20;;;;;;;26.33;14.73;;;6.60;99.90;;;;;;4996468;28;20184;-70
2022/12/01 03:28:50;;;;;;;27.60;15.03;;;6.70;99.90;;;;;;4996195;28;20573;-67
2022/12/01 03:31:21;;;;;;;28.10;15.53;;;6.70;99.90;;;;;;4995888;28;20204;-68
2022/12/01 03:33:53;;;;;;;26.57;15.00;;;6.70;99.90;;;;;;4996111;28;20169;-68
2022/12/01 03:36:32;;;;;;;23.63;15.60;;;6.70;99.90;;;;;;4996890;28;20197;-69
2022/12/01 03:39:01;;;;;;;28.93;14.50;;;6.60;99.90;;;;;;4996029;28;20181;-71
2022/12/01 03:41:41;;;;;;;30.83;16.40;;;6.70;99.90;;;;;;4995871;28;20196;-68
2022/12/01 03:44:13;;;;;;;32.97;16.77;;;6.70;99.90;;;;;;4996362;28;20264;-68
2022/12/01 03:47:02;;;;;;;35.20;16.97;;;6.70;99.90;;;;;;4995910;28;20226;-70
2022/12/01 03:49:28;;;;;;;39.00;16.40;;;6.70;99.90;;;;;;4995740;28;20224;-66
2022/12/01 03:51:56;;;;;;;30.87;16.00;;;6.70;99.90;;;;;;4995941;28;20173;-70
2022/12/01 03:54:49;;;;;;;35.80;16.33;;;6.60;99.90;;;;;;4995931;28;20255;-69
2022/12/01 03:57:19;;;;;;;27.10;13.87;;;6.60;99.90;;;;;;4995567;28;20631;-69
2022/12/01 03:59:47;;;;;;;26.37;15.20;;;6.60;99.90;;;;;;4995684;28;20279;-69
2022/12/01 04:02:13;;;;;;;29.97;14.67;;;6.60;99.90;;;;;;4995787;28;20177;-69
2022/12/01 04:04:38;;;;;;;30.70;14.03;;;6.60;99.90;;;;;;4995335;28;20252;-70
2022/12/01 04:07:04;;;;;;;41.30;18.33;;;6.60;99.90;;;;;;4995302;28;20169;-69
2022/12/01 04:09:30;;;;;;;29.60;16.50;;;6.60;99.90;;;;;;4995042;28;20729;-69
2022/12/01 04:14:39;;;;;;;35.33;16.67;;;6.50;99.90;;;;;;4994535;28;20176;-69
2022/12/01 04:17:05;;;;;;;33.37;16.53;;;6.50;99.90;;;;;;4994219;28;20189;-70
2022/12/01 04:19:31;;;;;;;30.60;17.10;;;6.50;99.90;;;;;;4994459;28;20235;-66
2022/12/01 04:21:56;;;;;;;27.40;16.13;;;6.50;99.90;;;;;;4995130;28;20268;-67
2022/12/01 04:24:22;;;;;;;35.47;15.97;;;6.40;99.90;;;;;;4993930;28;20181;-69
2022/12/01 04:26:47;;;;;;;27.97;16.20;;;6.40;99.90;;;;;;4995178;28;20185;-73
2022/12/01 04:29:13;;;;;;;44.90;15.63;;;6.40;99.90;;;;;;4994597;28;20199;-68
2022/12/01 04:31:39;;;;;;;26.63;15.70;;;6.30;99.90;;;;;;4975276;28;20232;-68
2022/12/01 04:34:06;;;;;;;39.03;14.17;;;6.40;99.90;;;;;;4975846;28;20180;-69
2022/12/01 04:36:33;;;;;;;28.90;15.43;;;6.30;99.90;;;;;;4975499;28;20189;-71
2022/12/01 04:38:59;;;;;;;36.10;14.83;;;6.30;99.90;;;;;;4975728;28;20268;-66
2022/12/01 04:41:26;;;;;;;27.07;14.90;;;6.30;99.90;;;;;;4991967;28;20277;-70
2022/12/01 04:43:53;;;;;;;29.43;14.40;;;6.30;99.90;;;;;;4994812;28;20176;-67
2022/12/01 04:46:19;;;;;;;30.90;14.40;;;6.30;99.90;;;;;;4994796;28;20164;-67
2022/12/01 04:48:45;;;;;;;40.80;15.87;;;6.40;99.90;;;;;;4993259;28;20464;-64
2022/12/01 04:51:10;;;;;;;34.60;17.60;;;6.30;99.90;;;;;;4992905;28;20263;-64
2022/12/01 04:53:36;;;;;;;28.27;13.87;;;6.40;99.90;;;;;;4992752;28;20200;-65
2022/12/01 04:56:03;;;;;;;32.10;15.53;;;6.40;99.90;;;;;;4992643;28;20184;-65
2022/12/01 04:58:29;;;;;;;33.73;15.93;;;6.40;99.90;;;;;;4992973;28;20180;-65
2022/12/01 05:01:01;;;;;;;34.30;16.87;;;6.40;99.90;;;;;;4992626;28;20266;-65
2022/12/01 05:03:27;;;;;;;39.77;17.67;;;6.40;99.90;;;;;;4991626;28;20172;-65
2022/12/01 05:06:08;;;;;;;44.63;16.00;;;6.40;99.90;;;;;;4992578;28;20173;-64
2022/12/01 05:08:34;;;;;;;41.27;17.57;;;6.40;99.90;;;;;;4992890;28;20534;-64
2022/12/01 05:11:00;;;;;;;27.60;16.40;;;6.40;99.90;;;;;;4992518;28;20216;-64
2022/12/01 05:13:26;;;;;;;39.20;17.90;;;6.30;99.90;;;;;;4991475;28;20212;-64
2022/12/01 05:15:52;;;;;;;35.60;16.50;;;6.40;99.90;;;;;;4992474;28;20255;-64
2022/12/01 05:18:17;;;;;;;30.27;16.57;;;6.30;99.90;;;;;;4992637;28;20207;-64
2022/12/01 05:20:58;;;;;;;32.47;16.37;;;6.30;99.90;;;;;;4992024;28;20193;-64
2022/12/01 05:23:33;;;;;;;28.97;13.60;;;6.40;99.90;;;;;;4992165;28;20155;-64
2022/12/01 05:25:59;;;;;;;22.83;13.03;;;6.40;99.90;;;;;;4992350;28;20677;-64
2022/12/01 05:28:25;;;;;;;32.17;16.50;;;6.30;99.90;;;;;;4992602;28;20193;-64
2022/12/01 05:30:53;;;;;;;27.40;16.77;;;6.30;99.90;;;;;;4992191;28;20286;-64
2022/12/01 05:33:19;;;;;;;30.37;16.00;;;6.30;99.90;;;;;;4992520;28;20171;-64
2022/12/01 05:35:46;;;;;;;35.63;16.70;;;6.40;99.90;;;;;;4991955;28;20173;-64
2022/12/01 05:38:12;;;;;;;30.37;15.40;;;6.40;99.90;;;;;;4992432;28;20255;-64
2022/12/01 05:40:37;;;;;;;34.77;17.60;;;6.40;99.90;;;;;;4991783;28;20193;-64
2022/12/01 05:43:03;;;;;;;32.63;17.23;;;6.40;99.90;;;;;;4992358;28;20169;-64
2022/12/01 05:45:29;;;;;;;32.63;16.83;;;6.30;99.90;;;;;;4992486;28;20165;-64
2022/12/01 05:47:59;;;;;;;39.07;15.80;;;6.30;99.90;;;;;;4992206;28;20264;-64
2022/12/01 05:50:26;;;;;;;33.07;15.40;;;6.30;99.90;;;;;;4992074;28;20674;-64
2022/12/01 05:52:51;;;;;;;33.37;15.37;;;6.30;99.90;;;;;;4992040;28;20243;-64
2022/12/01 05:55:18;;;;;;;28.93;14.77;;;6.30;99.90;;;;;;4992361;28;20658;-64
2022/12/01 05:57:43;;;;;;;28.20;13.90;;;6.40;99.90;;;;;;4991875;28;20215;-65
2022/12/01 06:00:10;;;;;;;22.83;13.33;;;6.30;99.90;;;;;;4992027;28;20192;-64
2022/12/01 06:02:35;;;;;;;25.80;13.63;;;6.20;99.90;;;;;;4990846;28;20184;-64
2022/12/01 06:05:01;;;;;;;17.70;11.93;;;6.20;99.90;;;;;;4992299;28;20169;-64
2022/12/01 06:07:26;;;;;;;26.53;12.60;;;6.20;99.90;;;;;;4992117;28;20548;-64
2022/12/01 06:09:52;;;;;;;19.77;12.47;;;6.10;99.90;;;;;;4991650;28;20239;-64
2022/12/01 06:12:18;;;;;;;23.97;13.67;;;6.10;99.90;;;;;;4992078;28;20184;-64
2022/12/01 06:14:44;;;;;;;25.77;14.43;;;6.10;99.90;;;;;;4992131;28;20177;-64
2022/12/01 06:17:10;;;;;;;33.77;15.50;;;6.10;99.90;;;;;;4991788;28;20262;-64
2022/12/01 06:19:35;;;;;;;26.47;14.67;;;6.10;99.90;;;;;;4991532;28;20247;-64
2022/12/01 06:22:01;;;;;;;19.13;12.67;;;6.10;99.90;;;;;;4991875;28;20172;-64
2022/12/01 06:24:27;;;;;;;19.70;12.57;;;6.10;99.90;;;;;;4991990;28;20184;-64
2022/12/01 06:26:53;;;;;;;27.27;14.83;;;6.10;99.90;;;;;;4991700;28;20610;-64
2022/12/01 06:29:18;;;;;;;21.00;13.63;;;6.10;99.90;;;;;;4991651;28;20264;-64
2022/12/01 06:31:44;;;;;;;20.20;13.17;;;6.10;99.90;;;;;;4991614;28;20312;-64
2022/12/01 06:34:09;;;;;;;25.43;13.30;;;6.10;99.90;;;;;;4992691;28;20192;-64
2022/12/01 06:36:35;;;;;;;26.13;13.60;;;6.10;99.90;;;;;;4995554;28;20280;-64
2022/12/01 06:39:01;;;;;;;16.37;11.53;;;6.10;99.90;;;;;;4995521;28;20195;-64
2022/12/01 06:41:26;;;;;;;28.57;14.43;;;6.10;99.90;;;;;;4994569;28;20666;-64
2022/12/01 06:43:53;;;;;;;18.30;12.67;;;6.10;99.90;;;;;;4995276;28;20164;-64
2022/12/01 06:46:19;;;;;;;21.17;14.53;;;6.10;99.90;;;;;;4995397;28;20654;-64
2022/12/01 06:48:47;;;;;;;20.73;14.43;;;6.10;99.90;;;;;;4993922;28;20255;-64
2022/12/01 06:51:13;;;;;;;20.27;14.97;;;6.10;99.90;;;;;;4995217;28;20197;-64
2022/12/01 06:53:39;;;;;;;20.50;13.10;;;6.10;99.90;;;;;;4995037;28;20533;-64
2022/12/01 06:56:04;;;;;;;24.87;14.77;;;6.20;99.90;;;;;;4995366;28;20223;-64
2022/12/01 06:58:30;;;;;;;25.60;14.80;;;6.20;99.90;;;;;;4995212;28;20171;-64
2022/12/01 07:00:57;;;;;;;24.10;14.53;;;6.20;99.90;;;;;;4994778;28;20201;-64
2022/12/01 07:03:23;;;;;;;26.10;15.47;;;6.20;99.90;;;;;;4995025;28;20615;-64
2022/12/01 07:05:59;;;;;;;31.20;15.50;;;6.20;99.90;;;;;;4994863;28;20248;-64
2022/12/01 07:08:27;;;;;;;30.70;15.70;;;6.20;99.90;;;;;;4995218;28;20180;-64
2022/12/01 07:11:03;;;;;;;24.70;16.23;;;6.20;99.90;;;;;;4993056;28;20302;-64
2022/12/01 07:13:29;;;;;;;30.77;16.53;;;6.20;99.90;;;;;;4995028;28;20179;-64
2022/12/01 07:15:56;;;;;;;26.83;15.53;;;6.20;99.90;;;;;;4994833;28;20243;-64
2022/12/01 07:18:22;;;;;;;35.83;14.73;;;6.30;99.90;;;;;;4993406;28;20622;-64
2022/12/01 07:20:47;;;;;;;24.17;15.03;;;6.30;99.90;;;;;;4992905;28;20224;-65
2022/12/01 07:23:13;;;;;;;36.43;17.97;;;6.30;99.90;;;;;;4993261;28;20192;-64
2022/12/01 07:25:38;;;;;;;24.37;16.63;;;6.30;99.90;;;;;;4994374;28;20200;-64
2022/12/01 07:28:04;;;;;;;21.80;15.40;;;6.30;99.90;;;;;;4994443;28;20187;-64
2022/12/01 07:30:30;;;;;;;19.13;13.17;;;6.30;99.90;;;;;;4992863;28;20208;-64
2022/12/01 07:32:55;;;;;;;23.47;14.63;;;6.30;99.90;;;;;;4994257;28;20191;-64
2022/12/01 07:35:21;;;;;;;30.00;15.23;;;6.30;99.90;;;;;;4994777;28;20450;-64
2022/12/01 07:37:46;;;;;;;26.80;15.03;;;6.40;99.90;;;;;;4994168;28;20209;-64
2022/12/01 07:40:13;;;;;;;26.03;14.70;;;6.40;99.90;;;;;;4993342;28;20264;-64
2022/12/01 07:42:42;;;;;;;30.33;15.40;;;6.40;99.90;;;;;;4994237;28;20646;-64
2022/12/01 07:45:07;;;;;;;19.60;11.93;;;6.40;99.90;;;;;;4992619;28;20184;-64
2022/12/01 07:47:33;;;;;;;20.63;13.40;;;6.30;99.90;;;;;;4994152;28;20169;-65
2022/12/01 07:49:59;;;;;;;27.57;15.77;;;6.30;99.90;;;;;;4993568;28;20654;-65
2022/12/01 07:52:24;;;;;;;33.40;16.33;;;6.40;99.90;;;;;;4994095;28;20208;-65
2022/12/01 07:54:50;;;;;;;26.17;14.53;;;6.40;99.90;;;;;;4993841;28;20642;-64
2022/12/01 07:57:17;;;;;;;25.20;15.90;;;6.40;99.90;;;;;;4994030;28;20299;-64
2022/12/01 07:59:42;;;;;;;19.60;13.57;;;6.50;99.90;;;;;;4993563;28;20330;-64
2022/12/01 08:02:09;;;;;;;30.30;14.87;;;6.50;99.90;;;;;;4993938;28;20255;-64
2022/12/01 08:04:35;;;;;;;27.10;14.83;;;6.50;99.90;;;;;;4994004;28;20176;-64
2022/12/01 08:07:00;;;;;;;20.83;14.77;;;6.40;99.90;;;;;;4993774;28;20177;-64
2022/12/01 08:11:54;;;;;;;29.87;15.03;;;6.40;99.90;;;;;;4972425;28;20311;-68
2022/12/01 08:14:19;;;;;;;32.90;16.87;;;6.50;99.90;;;;;;4972785;28;20239;-68
2022/12/01 08:16:47;;;;;;;32.83;14.63;;;6.60;99.90;;;;;;4972591;28;20217;-68
2022/12/01 08:19:13;;;;;;;27.67;13.93;;;6.50;99.90;;;;;;4973965;28;20170;-68
2022/12/01 08:21:38;;;;;;;29.97;15.57;;;6.50;99.90;;;;;;4972277;28;20292;-68
2022/12/01 08:24:04;;;;;;;27.80;14.50;;;6.50;99.90;;;;;;4972639;28;20177;-67
2022/12/01 08:26:30;;;;;;;28.10;14.63;;;6.50;99.90;;;;;;4972649;28;20677;-68
2022/12/01 08:28:56;;;;;;;33.63;14.17;;;6.60;99.90;;;;;;4972530;28;20599;-67
2022/12/01 08:31:24;;;;;;;27.93;13.27;;;6.60;99.90;;;;;;4974045;28;20256;-68
2022/12/01 08:33:50;;;;;;;21.47;13.60;;;6.50;99.90;;;;;;4973628;28;20216;-68
2022/12/01 08:36:16;;;;;;;27.43;13.30;;;6.50;99.90;;;;;;4973611;28;20639;-67
2022/12/01 08:38:48;;;;;;;24.93;13.73;;;6.60;99.90;;;;;;4972429;28;20636;-67
2022/12/01 08:41:14;;;;;;;24.30;14.50;;;6.50;99.90;;;;;;4973327;28;20189;-67
2022/12/01 08:43:43;;;;;;;29.53;18.30;;;6.50;99.90;;;;;;4973533;28;20201;-68
2022/12/01 08:46:09;;;;;;;27.77;14.90;;;6.50;99.90;;;;;;4972115;28;20170;-68
2022/12/01 08:48:35;;;;;;;33.77;16.97;;;6.60;99.90;;;;;;4972281;28;20185;-67
2022/12/01 08:51:03;;;;;;;39.63;16.73;;;6.70;99.90;;;;;;4971808;28;20228;-68
2022/12/01 08:53:30;;;;;;;25.93;16.50;;;6.70;99.90;;;;;;4973530;28;20256;-68
2022/12/01 08:56:02;;;;;;;26.67;17.40;;;6.70;99.90;;;;;;4972865;28;20738;-67
2022/12/01 08:58:27;;;;;;;29.67;15.77;;;6.70;99.90;;;;;;4970258;28;20244;-68
2022/12/01 09:01:03;;;;;;;32.47;16.03;;;6.70;99.90;;;;;;4987543;28;20225;-68
2022/12/01 09:03:29;;;;;;;29.93;14.73;;;6.70;99.90;;;;;;4973330;28;20264;-67
2022/12/01 09:06:20;;;;;;;27.63;14.60;;;6.70;99.90;;;;;;4972984;28;20575;-68
2022/12/01 09:08:46;;;;;;;28.20;14.43;;;6.70;99.90;;;;;;4971192;28;20209;-68
2022/12/01 09:11:14;;;;;;;26.77;16.67;;;6.60;99.90;;;;;;4971334;28;20213;-67
2022/12/01 09:13:41;;;;;;;32.73;15.20;;;6.70;99.90;;;;;;4971515;28;20587;-68
2022/12/01 09:16:10;;;;;;;28.30;13.43;;;6.70;99.90;;;;;;4971472;28;20178;-67
2022/12/01 09:18:36;;;;;;;27.70;15.27;;;6.70;99.90;;;;;;4971739;28;20173;-68
2022/12/01 09:21:10;;;;;;;30.37;15.63;;;6.70;99.90;;;;;;4987399;28;20204;-68
2022/12/01 09:23:36;;;;;;;29.63;16.20;;;6.70;99.90;;;;;;4971457;28;20173;-68
2022/12/01 09:26:02;;;;;;;28.67;14.40;;;6.60;99.90;;;;;;4971207;28;20304;-68
2022/12/01 09:28:27;;;;;;;44.57;16.37;;;6.70;99.90;;;;;;4972783;28;20189;-68
2022/12/01 09:30:53;;;;;;;29.50;15.97;;;6.70;99.90;;;;;;4972149;28;20209;-67
2022/12/01 09:33:18;;;;;;;34.33;15.47;;;6.70;99.90;;;;;;4971414;28;20385;-68
2022/12/01 09:35:44;;;;;;;40.97;15.07;;;6.80;99.90;;;;;;4972345;28;20526;-68
2022/12/01 09:38:09;;;;;;;23.87;16.07;;;6.90;99.90;;;;;;4971082;28;20264;-69
2022/12/01 09:40:38;;;;;;;27.20;15.80;;;6.80;99.90;;;;;;4972392;28;20190;-68
2022/12/01 09:43:18;;;;;;;32.30;16.97;;;6.80;99.90;;;;;;4971450;28;20181;-68
2022/12/01 09:45:50;;;;;;;33.90;18.57;;;6.80;99.90;;;;;;4970975;28;20261;-68
2022/12/01 09:48:56;;;;;;;38.47;16.80;;;6.90;99.90;;;;;;4971381;28;20668;-68
2022/12/01 09:51:25;;;;;;;29.40;15.10;;;6.80;99.90;;;;;;4963230;28;20579;-68
2022/12/01 09:53:58;;;;;;;32.77;15.13;;;6.80;99.90;;;;;;4970888;28;20553;-68
2022/12/01 09:56:26;;;;;;;29.90;15.40;;;6.80;99.90;;;;;;4972220;28;20204;-68
2022/12/01 09:59:00;;;;;;;27.90;14.90;;;6.80;99.90;;;;;;4971187;28;20178;-68
2022/12/01 10:01:37;;;;;;;32.43;14.20;;;6.80;99.90;;;;;;4970759;28;20329;-68
2022/12/01 10:04:34;;;;;;;26.80;15.57;;;6.80;99.90;;;;;;4972460;28;20223;-68
2022/12/01 10:07:03;;;;;;;31.80;17.03;;;6.90;99.90;;;;;;4972223;28;20176;-69
2022/12/01 10:09:56;;;;;;;26.07;16.07;;;6.90;99.90;;;;;;4975495;28;20630;-68
2022/12/01 10:12:26;;;;;;;23.47;13.63;;;7.00;99.90;;;;;;4974185;28;20618;-68
2022/12/01 10:14:54;;;;;;;25.27;14.20;;;7.00;99.90;;;;;;4975282;28;20658;-68
2022/12/01 10:17:32;;;;;;;31.63;16.47;;;7.00;99.90;;;;;;4973753;28;20563;-68
2022/12/01 10:20:07;;;;;;;23.27;14.70;;;7.10;99.90;;;;;;4973589;28;20714;-68
2022/12/01 10:23:24;;;;;;;22.93;12.43;;;7.10;99.90;;;;;;4975066;28;20181;-68
2022/12/01 10:25:54;;;;;;;28.10;14.47;;;7.10;99.90;;;;;;4962721;28;20189;-67
2022/12/01 10:28:45;;;;;;;21.23;12.80;;;7.10;99.90;;;;;;4976223;28;20200;-68
2022/12/01 10:31:18;;;;;;;22.00;13.60;;;7.10;99.90;;;;;;4974531;28;20292;-67
2022/12/01 10:34:01;;;;;;;19.67;13.20;;;7.20;99.90;;;;;;4975929;28;20186;-68
2022/12/01 10:36:29;;;;;;;20.33;13.30;;;7.20;99.90;;;;;;4974715;28;20191;-68
2022/12/01 10:38:55;;;;;;;20.97;12.63;;;7.20;99.90;;;;;;4975762;28;20181;-68
2022/12/01 10:41:22;;;;;;;26.83;13.20;;;7.30;99.90;;;;;;4973638;28;20197;-68
2022/12/01 10:43:56;;;;;;;22.13;14.17;;;7.20;99.90;;;;;;4975570;28;20574;-68
2022/12/01 10:46:33;;;;;;;20.73;14.30;;;7.30;99.90;;;;;;4975906;28;20177;-68
2022/12/01 10:49:06;;;;;;;24.67;14.60;;;7.30;99.90;;;;;;4975608;28;20235;-68
2022/12/01 10:51:52;;;;;;;24.93;12.93;;;7.30;99.90;;;;;;4975593;28;20216;-68
2022/12/01 10:54:18;;;;;;;20.80;11.97;;;7.20;99.90;;;;;;4975641;28;20166;-68
2022/12/01 10:56:47;;;;;;;17.47;11.73;;;7.20;99.90;;;;;;4975451;28;20197;-68
2022/12/01 10:59:22;;;;;;;14.67;11.87;;;7.20;99.90;;;;;;4973902;28;20181;-68
2022/12/01 11:01:48;;;;;;;25.90;13.17;;;7.30;99.90;;;;;;4975404;28;20210;-68
2022/12/01 11:04:50;;;;;;;22.47;14.50;;;7.30;99.90;;;;;;4974256;28;20553;-68
2022/12/01 11:07:43;;;;;;;18.27;10.97;;;7.30;99.90;;;;;;4974213;28;20288;-68
2022/12/01 11:10:18;;;;;;;19.30;11.77;;;7.30;99.90;;;;;;4973612;28;20228;-68
2022/12/01 11:12:51;;;;;;;18.47;12.13;;;7.30;99.90;;;;;;4975132;28;20177;-67
2022/12/01 11:15:22;;;;;;;22.93;12.37;;;7.30;99.90;;;;;;4975394;28;20177;-68
2022/12/01 11:17:55;;;;;;;19.67;12.07;;;7.20;99.90;;;;;;4974916;28;20296;-68
2022/12/01 11:20:38;;;;;;;20.67;13.60;;;7.20;99.90;;;;;;4971811;28;20216;-68
2022/12/01 11:23:28;;;;;;;18.00;12.20;;;7.20;99.90;;;;;;4974128;28;20216;-68
2022/12/01 11:26:02;;;;;;;14.90;11.33;;;7.20;99.90;;;;;;4974807;28;20174;-68
2022/12/01 11:28:29;;;;;;;15.63;11.90;;;7.10;99.90;;;;;;4973825;28;20209;-68
2022/12/01 11:31:01;;;;;;;12.73;11.00;;;7.10;99.90;;;;;;4973294;28;20259;-68
2022/12/01 11:33:28;;;;;;;19.77;12.73;;;7.10;99.90;;;;;;4975150;28;20812;-68
2022/12/01 11:35:54;;;;;;;17.67;10.77;;;7.00;99.90;;;;;;4974940;28;20224;-68
2022/12/01 11:38:23;;;;;;;20.90;13.63;;;7.00;99.90;;;;;;4973539;28;20724;-68
2022/12/01 11:40:54;;;;;;;17.67;13.07;;;7.00;99.90;;;;;;4969897;28;20737;-67
2022/12/01 11:43:31;;;;;;;18.93;11.27;;;7.00;99.90;;;;;;4972894;28;20177;-68
2022/12/01 11:46:03;;;;;;;20.37;12.70;;;7.00;99.90;;;;;;4973899;28;20228;-67
2022/12/01 11:48:31;;;;;;;19.83;12.90;;;7.00;99.90;;;;;;4973203;28;20667;-68
2022/12/01 11:50:59;;;;;;;19.23;13.57;;;7.00;99.90;;;;;;4971479;28;20217;-68
2022/12/01 11:53:31;;;;;;;19.10;13.40;;;7.10;99.90;;;;;;4974202;28;20177;-68
2022/12/01 11:56:22;;;;;;;14.80;12.23;;;7.10;99.90;;;;;;4972742;28;20398;-67
2022/12/01 11:58:52;;;;;;;18.43;12.70;;;7.10;99.90;;;;;;4974232;28;20200;-68
2022/12/01 12:01:55;;;;;;;19.97;14.23;;;7.10;99.90;;;;;;4972588;28;20200;-68
2022/12/01 12:05:06;;;;;;;18.47;13.93;;;7.10;99.90;;;;;;4973104;28;20272;-68
2022/12/01 12:07:58;;;;;;;15.60;11.90;;;7.10;99.90;;;;;;4958446;28;20208;-68
2022/12/01 12:10:24;;;;;;;19.40;13.77;;;7.10;99.90;;;;;;4973239;28;20217;-68
2022/12/01 12:13:25;;;;;;;19.17;12.47;;;7.10;99.90;;;;;;4973194;28;20585;-68
2022/12/01 12:16:21;;;;;;;16.27;14.40;;;7.10;99.90;;;;;;4932923;29;20260;-67
2022/12/01 12:19:10;;;;;;;23.43;13.37;;;7.10;99.90;;;;;;4971989;28;20280;-68
2022/12/01 12:22:00;;;;;;;19.30;14.67;;;7.10;99.90;;;;;;4972337;28;20193;-68
2022/12/01 12:25:22;;;;;;;18.03;13.30;;;7.20;99.90;;;;;;4969983;28;20236;-68
2022/12/01 12:28:16;;;;;;;25.73;15.13;;;7.20;99.90;;;;;;4913399;29;20223;-68
2022/12/01 12:31:12;;;;;;;25.97;16.43;;;7.20;99.90;;;;;;4912748;29;20681;-68
2022/12/01 12:33:49;;;;;;;22.97;13.47;;;7.20;99.90;;;;;;4970539;28;20188;-68
2022/12/01 12:36:30;;;;;;;32.13;15.40;;;7.20;99.90;;;;;;4972316;28;20209;-69
2022/12/01 12:39:21;;;;;;;21.07;14.77;;;7.20;99.90;;;;;;4971906;28;20217;-68
2022/12/01 12:41:53;;;;;;;26.47;16.83;;;7.30;99.90;;;;;;4972877;28;20193;-68
2022/12/01 12:44:41;;;;;;;23.73;14.70;;;7.20;99.90;;;;;;4973247;28;20185;-68
2022/12/01 12:47:20;;;;;;;21.33;15.20;;;7.20;99.90;;;;;;4988379;28;20551;-68
2022/12/01 12:49:55;;;;;;;23.03;15.37;;;7.30;99.90;;;;;;4971210;28;20651;-67
2022/12/01 12:52:39;;;;;;;24.30;16.03;;;7.30;99.90;;;;;;5129508;27;20559;-67
2022/12/01 12:55:23;;;;;;;32.13;18.27;;;7.30;99.90;;;;;;5129401;28;20186;-67
2022/12/01 12:57:57;;;;;;;25.40;15.97;;;7.30;99.90;;;;;;5129867;28;20722;-67
2022/12/01 13:00:29;;;;;;;20.53;15.10;;;7.20;99.90;;;;;;5137428;27;20183;-67
2022/12/01 13:03:31;;;;;;;31.63;16.23;;;7.30;99.90;;;;;;5131554;27;20266;-67